Time;durP1;ratioP1;P1;durP2;ratioP2;P2;SDS_P1;SDS_P2;PMS_P1;PMS_P2;Temp;Humidity;BMP_temperature;BMP_pressure;BME280_temperature;BME280_humidity;BME280_pressure;Samples;Min_cycle;Max_cycle;Signal;HPM_P1;HPM_P2
2023/09/14 05:09:13;;;;;;;;;17.25;14.75;;;;;26.14;55.39;101620.25;5092321;27;45345;-55
2023/09/14 05:11:38;;;;;;;;;19.25;18.50;;;;;26.65;53.58;101626.13;5076366;28;45322;-55
2023/09/14 05:14:03;;;;;;;;;18.75;17.00;;;;;26.97;53.27;101630.31;5075554;28;49946;-54
2023/09/14 05:16:29;;;;;;;;;14.25;14.25;;;;;27.25;52.38;101633.88;5075692;28;54390;-56
2023/09/14 05:18:54;;;;;;;;;15.00;15.00;;;;;27.29;51.35;101627.94;5075477;27;46551;-55
2023/09/14 05:21:19;;;;;;;;;13.75;13.25;;;;;27.44;51.14;101633.72;5075670;28;58811;-62
2023/09/14 05:26:20;;;;;;;;;16.75;16.75;;;;;27.46;50.63;101632.56;5035810;22;45748;-56
2023/09/14 05:40:20;;;;;;;;;16.50;16.50;;;;;27.55;50.12;101639.03;5113581;27;45344;-52
2023/09/14 05:42:46;;;;;;;;;20.75;18.25;;;;;27.89;49.13;101636.38;5096438;27;45418;-55
2023/09/14 05:45:12;;;;;;;;;13.75;13.75;;;;;27.98;49.14;101632.66;5096301;27;45353;-55
2023/09/14 05:47:38;;;;;;;;;19.25;17.25;;;;;27.98;49.16;101631.81;5096125;27;45272;-53
2023/09/14 05:50:06;;;;;;;;;16.75;16.75;;;;;28.05;48.52;101630.97;5096228;27;45253;-55
2023/09/14 05:52:32;;;;;;;;;16.00;16.00;;;;;28.12;48.16;101639.47;5096589;27;45567;-55
2023/09/14 05:54:57;;;;;;;;;16.75;16.50;;;;;28.24;48.84;101641.78;5112059;27;45356;-55
2023/09/14 05:57:23;;;;;;;;;14.50;14.25;;;;;28.26;48.32;101643.53;5096030;27;45329;-59
2023/09/14 05:59:48;;;;;;;;;18.00;15.75;;;;;28.31;48.18;101646.69;5095517;27;45397;-60
2023/09/14 06:02:13;;;;;;;;;17.75;16.50;;;;;28.42;47.79;101635.34;5095518;27;59271;-56
2023/09/14 06:04:39;;;;;;;;;19.75;17.75;;;;;28.42;47.44;101649.13;5095531;27;45491;-57
2023/09/14 06:07:05;;;;;;;;;19.50;19.50;;;;;28.34;47.88;101649.09;5095509;27;45317;-57
2023/09/14 06:09:30;;;;;;;;;18.00;16.50;;;;;28.21;47.73;101652.31;5096041;27;45245;-57
2023/09/14 06:11:56;;;;;;;;;18.50;17.75;;;;;28.18;47.63;101650.72;5095331;27;45338;-56
2023/09/14 06:14:21;;;;;;;;;16.50;15.50;;;;;28.22;47.53;101654.03;5095329;27;45389;-56
2023/09/14 06:16:47;;;;;;;;;13.50;13.50;;;;;28.21;48.23;101647.66;5095470;27;45804;-57
2023/09/14 06:19:12;;;;;;;;;16.00;16.00;;;;;28.45;47.29;101659.84;5095873;27;45579;-55
2023/09/14 06:21:37;;;;;;;;;22.25;18.00;;;;;28.50;47.55;101655.56;5095957;27;45235;-56
2023/09/14 06:24:03;;;;;;;;;16.25;15.00;;;;;28.60;47.08;101658.19;5095583;27;45251;-55
2023/09/14 06:26:30;;;;;;;;;14.25;13.25;;;;;28.71;46.75;101660.69;5095621;27;45414;-56
2023/09/14 06:28:56;;;;;;;;;16.00;16.00;;;;;28.73;46.80;101663.28;5095158;27;45235;-57
2023/09/14 06:31:24;;;;;;;;;18.00;17.00;;;;;28.74;46.36;101665.00;5095256;27;45362;-56
2023/09/14 06:33:50;;;;;;;;;18.00;15.25;;;;;28.75;46.96;101662.06;5095369;27;46160;-58
2023/09/14 06:36:18;;;;;;;;;22.50;20.25;;;;;28.80;46.89;101656.09;5095446;27;45348;-57
2023/09/14 06:38:47;;;;;;;;;22.00;20.00;;;;;28.84;46.11;101655.56;5094822;27;45398;-57
2023/09/14 06:41:16;;;;;;;;;19.25;17.25;;;;;28.76;46.79;101649.13;5082205;27;45401;-57
2023/09/14 06:43:44;;;;;;;;;19.00;17.75;;;;;28.74;46.68;101660.34;5082095;28;45385;-57
2023/09/14 06:46:10;;;;;;;;;18.25;18.25;;;;;28.77;46.26;101654.50;5080858;27;45817;-57
2023/09/14 06:48:35;;;;;;;;;21.00;21.00;;;;;28.81;46.16;101664.22;5081579;27;46090;-56
2023/09/14 06:51:01;;;;;;;;;19.00;18.00;;;;;28.78;46.38;101655.38;5081350;27;45251;-56
2023/09/14 06:53:26;;;;;;;;;22.50;21.00;;;;;28.83;45.93;101659.38;5081635;27;45210;-57
2023/09/14 06:55:52;;;;;;;;;18.00;17.25;;;;;28.85;45.85;101671.09;5081568;28;45462;-55
2023/09/14 06:58:17;;;;;;;;;16.75;16.25;;;;;29.00;45.54;101664.97;5081368;27;46215;-57
2023/09/14 07:00:42;;;;;;;;;22.50;21.25;;;;;29.05;45.44;101677.22;5081099;27;50949;-57
2023/09/14 07:03:08;;;;;;;;;22.75;20.75;;;;;29.14;45.98;101673.44;5081810;27;45317;-57
2023/09/14 07:05:35;;;;;;;;;23.00;21.50;;;;;29.14;44.96;101678.97;5081372;27;46848;-56
2023/09/14 07:08:00;;;;;;;;;24.75;21.75;;;;;28.95;45.81;101670.97;5081796;27;46266;-56
2023/09/14 07:10:26;;;;;;;;;21.00;19.75;;;;;28.89;45.52;101672.50;5071567;27;45400;-56
2023/09/14 07:12:52;;;;;;;;;24.00;19.75;;;;;28.88;45.20;101673.53;5065273;28;45559;-55
2023/09/14 07:15:17;;;;;;;;;24.00;23.00;;;;;28.79;46.14;101674.53;5075722;28;45309;-56
2023/09/14 07:17:43;;;;;;;;;20.75;20.25;;;;;28.92;45.67;101676.84;5078924;28;45999;-56
2023/09/14 07:20:08;;;;;;;;;23.75;21.25;;;;;29.09;46.04;101675.00;5080125;27;45255;-56
2023/09/14 07:22:35;;;;;;;;;28.50;28.50;;;;;29.25;45.30;101675.03;5081519;27;45156;-55
2023/09/14 07:25:01;;;;;;;;;20.75;20.75;;;;;29.17;46.05;101670.38;5081206;27;45263;-58
2023/09/14 07:27:27;;;;;;;;;25.50;23.25;;;;;29.23;45.88;101672.44;5079664;28;46963;-56
2023/09/14 07:29:52;;;;;;;;;25.00;23.25;;;;;29.32;45.35;101670.56;5079450;28;45515;-57
2023/09/14 07:32:18;;;;;;;;;23.00;23.00;;;;;29.35;45.84;101672.97;5067630;27;45472;-57
2023/09/14 07:34:44;;;;;;;;;27.00;26.75;;;;;29.29;45.54;101670.88;5080919;27;45359;-56
2023/09/14 07:37:09;;;;;;;;;30.50;28.25;;;;;29.40;45.64;101669.75;5080947;27;45404;-56
2023/09/14 07:39:34;;;;;;;;;23.75;23.75;;;;;29.37;45.21;101681.97;5080265;27;45306;-57
2023/09/14 07:42:00;;;;;;;;;24.75;22.75;;;;;29.38;45.75;101680.09;5080861;27;45346;-57
2023/09/14 07:44:25;;;;;;;;;28.50;27.00;;;;;29.39;45.51;101671.63;5079824;27;45365;-57
2023/09/14 07:46:51;;;;;;;;;22.75;21.25;;;;;29.53;45.28;101670.09;5080598;27;51699;-56
2023/09/14 07:49:16;;;;;;;;;27.25;27.25;;;;;29.62;45.02;101661.63;5080727;27;45353;-57
2023/09/14 07:51:41;;;;;;;;;26.50;26.50;;;;;29.66;44.44;101668.56;5079755;27;45271;-57
2023/09/14 07:54:07;;;;;;;;;29.25;27.50;;;;;29.61;44.65;101670.09;5080939;27;45831;-59
2023/09/14 07:56:32;;;;;;;;;27.00;24.50;;;;;29.70;44.77;101664.41;5080292;27;56010;-58
2023/09/14 07:58:57;;;;;;;;;28.00;25.25;;;;;29.79;44.56;101669.91;5080481;28;49489;-56
2023/09/14 08:01:23;;;;;;;;;24.75;23.25;;;;;29.72;44.69;101661.47;5079837;28;46104;-58
2023/09/14 08:03:49;;;;;;;;;31.00;24.75;;;;;29.78;45.21;101671.81;5080728;28;45166;-58
2023/09/14 08:06:19;;;;;;;;;28.50;27.50;;;;;29.87;44.47;101679.06;5080713;27;45286;-57
2023/09/14 08:08:45;;;;;;;;;24.00;24.00;;;;;29.92;44.82;101673.03;5080306;27;45345;-57
2023/09/14 08:11:11;;;;;;;;;28.50;27.00;;;;;29.98;44.42;101676.00;5079767;27;45555;-56
2023/09/14 08:13:36;;;;;;;;;32.25;26.75;;;;;30.01;44.38;101683.09;5079713;27;45508;-57
2023/09/14 08:16:05;;;;;;;;;27.00;27.00;;;;;30.07;44.43;101682.38;5079423;28;45409;-57
2023/09/14 08:18:31;;;;;;;;;33.00;29.50;;;;;30.14;43.75;101686.19;5080532;27;45350;-56
2023/09/14 08:20:56;;;;;;;;;29.00;28.25;;;;;30.16;43.69;101689.63;5079841;27;45236;-57
2023/09/14 08:23:21;;;;;;;;;28.25;27.25;;;;;30.22;43.80;101691.69;5080426;27;45464;-58
2023/09/14 08:25:47;;;;;;;;;36.25;31.25;;;;;30.19;43.51;101693.97;5080173;27;46195;-57
2023/09/14 08:28:14;;;;;;;;;33.25;30.50;;;;;30.13;43.42;101697.41;5080071;27;45301;-56
2023/09/14 08:30:40;;;;;;;;;28.75;28.75;;;;;30.09;43.90;101694.16;5076107;27;45362;-57
2023/09/14 08:33:07;;;;;;;;;28.00;28.00;;;;;30.17;43.59;101696.03;5069976;28;45311;-57
2023/09/14 08:35:34;;;;;;;;;31.50;29.00;;;;;30.25;43.54;101696.91;5079598;27;46311;-57
2023/09/14 08:37:59;;;;;;;;;33.00;32.25;;;;;30.30;43.38;101686.16;5079630;27;45302;-56
2023/09/14 08:40:24;;;;;;;;;29.25;29.00;;;;;30.36;42.65;101688.22;5080157;28;45280;-57
2023/09/14 08:42:51;;;;;;;;;30.25;28.25;;;;;30.47;42.70;101687.84;5079964;27;45238;-57
2023/09/14 08:45:37;;;;;;;;;27.75;26.00;;;;;30.55;42.92;101681.44;5078569;27;45425;-57
2023/09/14 08:48:04;;;;;;;;;24.00;21.75;;;;;30.70;42.78;101689.91;5080032;27;45211;-57
2023/09/14 08:50:31;;;;;;;;;29.00;29.00;;;;;30.76;42.55;101689.16;5079730;27;45360;-56
2023/09/14 08:52:57;;;;;;;;;31.50;29.75;;;;;30.74;42.32;101685.72;5079818;28;45329;-55
2023/09/14 08:55:24;;;;;;;;;30.50;29.50;;;;;30.72;42.08;101688.66;5079408;27;45297;-57
2023/09/14 08:57:51;;;;;;;;;32.00;29.25;;;;;30.71;41.96;101695.22;5079141;27;45306;-57
2023/09/14 09:00:17;;;;;;;;;21.75;20.25;;;;;30.86;41.13;101688.97;5077343;27;45350;-56
2023/09/14 09:02:44;;;;;;;;;25.75;25.75;;;;;30.96;41.33;101684.94;5078556;27;45300;-54
2023/09/14 09:05:11;;;;;;;;;23.25;21.50;;;;;31.03;40.99;101696.16;5077863;28;46319;-58
2023/09/14 09:07:39;;;;;;;;;21.75;21.75;;;;;31.16;40.98;101696.44;5078585;27;45405;-57
2023/09/14 09:10:07;;;;;;;;;19.75;15.75;;;;;31.20;40.30;101693.16;5078553;28;45436;-56
2023/09/14 09:12:32;;;;;;;;;25.00;21.50;;;;;31.23;40.47;101691.03;5078537;28;45508;-57
2023/09/14 09:15:01;;;;;;;;;24.75;22.25;;;;;31.32;40.87;101692.72;5077683;27;46142;-57
2023/09/14 09:17:26;;;;;;;;;20.25;20.00;;;;;31.45;40.72;101692.97;5075471;28;45353;-55
2023/09/14 09:19:53;;;;;;;;;22.50;22.50;;;;;31.58;40.25;101687.69;5069539;28;45452;-56
2023/09/14 09:22:19;;;;;;;;;17.75;16.75;;;;;31.66;39.47;101698.72;5078474;27;45511;-57
2023/09/14 09:24:44;;;;;;;;;16.75;16.50;;;;;31.44;39.48;101689.34;5078363;27;45364;-64
2023/09/14 09:27:39;;;;;;;;;20.00;14.75;;;;;31.52;38.97;101689.28;5077980;27;45441;-64
2023/09/14 09:30:05;;;;;;;;;20.25;18.50;;;;;31.41;39.44;101686.94;5069439;28;45299;-65
2023/09/14 09:32:31;;;;;;;;;17.00;15.75;;;;;31.47;39.36;101691.75;5078179;27;45450;-65
2023/09/14 09:35:00;;;;;;;;;21.25;19.75;;;;;31.63;39.10;101690.81;5078835;27;45436;-65
2023/09/14 09:37:26;;;;;;;;;17.75;17.75;;;;;31.70;38.79;101693.69;5076398;28;45421;-65
2023/09/14 09:39:52;;;;;;;;;20.00;17.75;;;;;31.85;39.20;101684.38;5078437;28;45393;-64
2023/09/14 09:42:19;;;;;;;;;15.50;15.50;;;;;32.00;38.32;101683.53;5077427;28;45512;-65
2023/09/14 09:44:45;;;;;;;;;18.00;18.00;;;;;31.93;38.58;101678.75;5078042;27;47013;-66
2023/09/14 09:47:12;;;;;;;;;27.00;23.00;;;;;31.74;39.11;101692.25;5078310;27;45401;-64
2023/09/14 09:49:39;;;;;;;;;23.25;21.75;;;;;31.54;39.50;101687.19;5079054;27;45679;-65
2023/09/14 09:52:08;;;;;;;;;25.25;23.50;;;;;31.72;38.94;101689.69;5078501;28;45361;-65
2023/09/14 09:54:35;;;;;;;;;23.00;20.00;;;;;31.87;38.84;101668.41;5078630;27;47288;-65
2023/09/14 09:57:03;;;;;;;;;20.75;20.75;;;;;32.06;38.88;101686.44;5078029;28;45405;-65
2023/09/14 09:59:30;;;;;;;;;19.00;18.00;;;;;32.14;38.27;101668.88;5077879;27;45364;-64
2023/09/14 10:01:56;;;;;;;;;26.25;25.75;;;;;32.09;38.45;101674.97;5078796;28;45417;-65
2023/09/14 10:04:29;;;;;;;;;28.75;27.25;;;;;32.18;38.77;101670.22;5078258;28;46703;-64
2023/09/14 10:06:59;;;;;;;;;22.75;22.00;;;;;32.11;38.91;101677.56;5078393;27;45423;-64
2023/09/14 10:09:26;;;;;;;;;18.75;17.25;;;;;32.09;39.04;101676.88;5093959;27;45263;-64
2023/09/14 10:11:53;;;;;;;;;26.75;20.75;;;;;32.20;38.94;101674.53;5077850;28;45481;-65
2023/09/14 10:14:24;;;;;;;;;22.25;20.00;;;;;32.23;38.85;101668.63;5077430;27;45390;-65
2023/09/14 10:16:52;;;;;;;;;29.50;25.50;;;;;32.40;38.75;101672.09;5082096;27;45249;-65
2023/09/14 10:19:20;;;;;;;;;28.00;24.00;;;;;32.37;38.37;101669.69;5082215;27;45488;-64
2023/09/14 10:21:48;;;;;;;;;24.00;19.75;;;;;32.47;38.43;101670.25;5080237;28;45641;-64
2023/09/14 10:24:15;;;;;;;;;22.25;18.75;;;;;32.53;38.47;101672.25;5081930;27;45340;-65
2023/09/14 10:26:44;;;;;;;;;14.75;13.50;;;;;32.61;38.20;101677.72;5081953;27;45313;-64
2023/09/14 10:29:09;;;;;;;;;12.25;11.50;;;;;32.64;37.98;101669.00;5081573;27;45331;-64
2023/09/14 10:31:36;;;;;;;;;13.50;13.00;;;;;32.66;36.77;101666.91;5070817;27;45457;-65
2023/09/14 10:34:03;;;;;;;;;14.25;10.50;;;;;32.60;36.79;101656.56;5078965;28;45508;-65
2023/09/14 10:36:30;;;;;;;;;12.00;12.00;;;;;32.58;37.74;101658.66;5081778;27;45280;-66
2023/09/14 10:39:00;;;;;;;;;10.75;10.75;;;;;32.41;37.38;101642.41;5081366;27;45251;-65
2023/09/14 10:41:26;;;;;;;;;10.75;10.00;;;;;32.49;37.16;101650.66;5081587;27;45509;-65
2023/09/14 10:43:53;;;;;;;;;8.25;7.00;;;;;32.48;36.99;101649.78;5081090;27;46162;-64
2023/09/14 10:46:24;;;;;;;;;9.25;8.50;;;;;32.71;36.87;101643.28;5081420;27;45330;-65
2023/09/14 10:48:49;;;;;;;;;5.00;5.00;;;;;32.67;36.79;101640.84;5081247;27;45388;-64
2023/09/14 10:51:15;;;;;;;;;11.00;10.00;;;;;32.66;36.26;101635.50;5080056;28;47334;-64
2023/09/14 10:53:41;;;;;;;;;7.00;7.00;;;;;32.61;35.89;101632.44;5081396;27;46032;-64
2023/09/14 10:56:23;;;;;;;;;5.00;5.00;;;;;32.79;35.50;101635.69;5081663;27;45393;-59
2023/09/14 10:58:53;;;;;;;;;4.00;4.00;;;;;32.95;35.27;101631.81;5080076;28;45532;-57
2023/09/14 11:01:26;;;;;;;;;5.00;5.00;;;;;32.95;33.34;101610.47;5081131;27;50862;-58
2023/09/14 11:04:13;;;;;;;;;4.00;4.00;;;;;33.08;32.60;101626.44;5081168;27;46628;-57
2023/09/14 11:06:44;;;;;;;;;3.00;3.00;;;;;33.28;32.74;101624.75;5081014;28;45326;-58
2023/09/14 11:09:09;;;;;;;;;6.00;4.50;;;;;33.43;31.49;101619.97;5080796;28;45368;-56
2023/09/14 11:11:39;;;;;;;;;3.00;3.00;;;;;33.60;31.28;101612.22;5080404;27;45647;-57
2023/09/14 11:14:08;;;;;;;;;4.75;4.75;;;;;33.75;31.57;101617.75;5077813;28;46080;-58
2023/09/14 11:16:53;;;;;;;;;5.00;4.50;;;;;33.98;32.05;101626.72;5069126;28;45551;-57
2023/09/14 11:19:37;;;;;;;;;5.50;5.50;;;;;34.02;31.50;101621.63;5065381;28;45330;-57
2023/09/14 11:22:15;;;;;;;;;5.75;5.75;;;;;34.01;31.51;101617.13;5075408;28;45462;-58
2023/09/14 11:24:41;;;;;;;;;13.00;9.75;;;;;34.10;31.16;101604.75;5071856;28;46021;-58
2023/09/14 11:27:15;;;;;;;;;7.50;5.75;;;;;34.11;31.79;101601.75;5080400;27;45781;-58
2023/09/14 11:29:45;;;;;;;;;6.75;6.00;;;;;34.17;30.97;101612.09;5080613;27;45327;-58
2023/09/14 11:32:18;;;;;;;;;8.00;5.50;;;;;34.40;31.32;101608.19;5067117;27;45361;-57
2023/09/14 11:34:44;;;;;;;;;6.75;6.75;;;;;34.55;31.14;101611.69;5079166;27;45243;-58
2023/09/14 11:37:12;;;;;;;;;5.25;5.25;;;;;34.70;30.74;101598.50;5080336;28;45376;-59
2023/09/14 11:39:40;;;;;;;;;7.75;7.75;;;;;35.06;31.54;101606.56;5078655;28;45695;-59
2023/09/14 11:42:06;;;;;;;;;4.00;3.75;;;;;35.22;30.31;101605.28;5080441;27;45382;-58
2023/09/14 11:44:31;;;;;;;;;5.75;5.75;;;;;35.53;30.36;101610.31;5080283;27;46068;-59
2023/09/14 11:47:01;;;;;;;;;4.50;4.50;;;;;35.70;30.60;101596.81;5080671;28;45440;-58
2023/09/14 11:49:31;;;;;;;;;5.75;5.75;;;;;35.97;29.35;101596.63;5080554;27;45292;-57
2023/09/14 11:51:57;;;;;;;;;5.00;4.00;;;;;36.36;29.46;101600.41;5080053;27;45534;-58
2023/09/14 11:54:30;;;;;;;;;4.50;4.50;;;;;36.62;28.68;101599.47;5080153;27;45449;-57
2023/09/14 11:57:00;;;;;;;;;7.50;6.25;;;;;36.88;29.11;101604.13;5080445;27;45399;-58
2023/09/14 11:59:32;;;;;;;;;5.50;5.50;;;;;37.07;27.93;101592.84;5080441;27;45240;-57
2023/09/14 12:02:03;;;;;;;;;5.75;4.75;;;;;36.94;27.70;101590.09;5080436;27;45338;-58
2023/09/14 12:04:29;;;;;;;;;6.00;5.75;;;;;36.41;28.00;101589.44;5080155;27;46249;-58
2023/09/14 12:06:55;;;;;;;;;5.00;5.00;;;;;36.18;28.63;101592.69;5080291;27;45711;-57
2023/09/14 12:09:37;;;;;;;;;4.75;4.75;;;;;35.92;28.86;101587.16;5080393;27;45350;-57
2023/09/14 12:12:03;;;;;;;;;7.25;5.50;;;;;35.88;28.93;101588.69;5080206;27;45443;-56
2023/09/14 12:14:45;;;;;;;;;6.00;4.25;;;;;35.63;29.07;101582.88;5079716;27;46388;-58
2023/09/14 12:17:23;;;;;;;;;5.00;5.00;;;;;35.57;29.55;101592.94;5080370;28;45266;-57
2023/09/14 12:19:55;;;;;;;;;11.50;7.25;;;;;35.56;29.50;101591.22;5079906;27;45417;-57
2023/09/14 12:22:21;;;;;;;;;7.50;6.25;;;;;35.57;30.02;101590.16;5079828;27;45530;-58
2023/09/14 12:24:49;;;;;;;;;4.25;4.25;;;;;35.57;29.92;101590.16;5080055;27;46298;-56
2023/09/14 12:27:16;;;;;;;;;5.00;4.50;;;;;35.55;29.96;101583.94;5080000;27;45453;-58
2023/09/14 12:29:42;;;;;;;;;7.00;5.00;;;;;35.57;29.87;101578.13;5079797;27;45369;-58
2023/09/14 12:32:09;;;;;;;;;6.00;6.00;;;;;36.12;29.36;101575.97;5066038;28;45308;-58
2023/09/14 12:34:34;;;;;;;;;5.25;5.25;;;;;36.36;28.54;101570.56;5079341;27;46354;-57
2023/09/14 12:37:00;;;;;;;;;6.25;6.25;;;;;36.43;28.80;101575.25;5079465;27;45322;-58
2023/09/14 12:39:26;;;;;;;;;4.50;4.50;;;;;36.93;28.52;101567.94;5079206;27;45825;-59
2023/09/14 12:41:53;;;;;;;;;5.00;4.50;;;;;38.02;27.11;101561.97;5079573;27;45480;-57
2023/09/14 12:44:23;;;;;;;;;5.50;5.50;;;;;39.32;25.35;101555.75;5078118;28;46131;-57
2023/09/14 12:46:51;;;;;;;;;5.50;4.50;;;;;40.51;24.45;101555.56;5078951;27;45401;-58
2023/09/14 12:49:16;;;;;;;;;3.75;3.75;;;;;41.75;22.85;101550.94;5079475;28;45437;-59
2023/09/14 12:51:49;;;;;;;;;2.75;2.00;;;;;42.92;21.13;101547.78;5079449;27;45566;-59
2023/09/14 12:54:25;;;;;;;;;4.00;4.00;;;;;44.21;20.10;101550.34;5079187;27;46308;-58
2023/09/14 12:56:50;;;;;;;;;4.50;3.25;;;;;45.02;19.30;101544.16;5079504;27;45575;-58
2023/09/14 12:59:15;;;;;;;;;6.00;5.75;;;;;45.57;18.35;101546.22;5079391;27;45314;-58
2023/09/14 13:01:41;;;;;;;;;4.33;3.00;;;;;45.17;18.80;101541.38;5079416;27;46916;-58
2023/09/14 13:04:08;;;;;;;;;9.50;7.75;;;;;44.14;19.82;101538.44;5079488;27;45937;-57
2023/09/14 13:06:35;;;;;;;;;3.50;3.50;;;;;43.21;20.80;101528.66;5078256;28;45540;-57
2023/09/14 13:09:07;;;;;;;;;3.75;3.75;;;;;42.36;21.25;101537.78;5079679;27;45456;-58
2023/09/14 13:11:34;;;;;;;;;4.75;4.75;;;;;41.31;22.09;101531.03;5078795;27;45181;-57
2023/09/14 13:14:00;;;;;;;;;6.50;4.00;;;;;41.02;22.59;101530.19;5078917;27;45369;-58
2023/09/14 13:16:27;;;;;;;;;4.50;4.50;;;;;41.76;21.71;101516.03;5078873;27;45433;-60
2023/09/14 13:18:53;;;;;;;;;6.50;4.25;;;;;42.44;21.60;101526.06;5079690;27;45400;-57
2023/09/14 13:21:18;;;;;;;;;5.00;5.00;;;;;42.65;21.15;101517.56;5078736;27;46000;-58
2023/09/14 13:23:44;;;;;;;;;5.00;5.00;;;;;42.64;20.34;101507.38;5079251;27;45971;-58
2023/09/14 13:26:09;;;;;;;;;4.75;4.75;;;;;42.35;20.96;101517.22;5078544;28;48239;-58
2023/09/14 13:28:35;;;;;;;;;3.75;3.75;;;;;41.97;22.23;101503.97;5079153;27;45986;-59
2023/09/14 13:31:00;;;;;;;;;4.25;4.25;;;;;41.43;22.43;101511.25;5073169;27;45532;-57
2023/09/14 13:33:25;;;;;;;;;7.00;5.75;;;;;40.81;22.31;101512.09;5071438;28;45382;-58
2023/09/14 13:35:52;;;;;;;;;3.75;3.75;;;;;40.27;23.04;101501.38;5077539;28;52883;-58
2023/09/14 13:38:18;;;;;;;;;7.25;4.75;;;;;40.74;23.19;101499.31;5079065;27;45345;-58
2023/09/14 13:40:43;;;;;;;;;5.50;5.50;;;;;41.77;21.88;101498.03;5077893;28;55050;-62
2023/09/14 13:43:08;;;;;;;;;4.00;4.00;;;;;43.05;21.19;101492.91;5078726;28;60301;-58
2023/09/14 13:45:34;;;;;;;;;5.50;5.50;;;;;43.79;20.30;101478.84;5077978;27;45264;-57
2023/09/14 13:47:59;;;;;;;;;5.75;5.75;;;;;43.60;19.55;101484.09;5079288;27;45421;-58
2023/09/14 13:50:25;;;;;;;;;6.00;5.00;;;;;43.20;20.23;101485.44;5080006;27;45532;-58
2023/09/14 13:52:51;;;;;;;;;5.25;4.25;;;;;43.34;20.51;101488.66;5082562;27;46019;-58
2023/09/14 13:55:17;;;;;;;;;5.75;4.25;;;;;44.08;19.18;101477.31;5082480;28;45492;-58
2023/09/14 13:57:44;;;;;;;;;5.00;5.00;;;;;44.79;19.57;101475.63;5082986;27;45341;-58
2023/09/14 14:00:12;;;;;;;;;5.75;5.75;;;;;45.04;18.47;101474.81;5082063;28;45475;-57
2023/09/14 14:02:40;;;;;;;;;4.00;4.00;;;;;44.86;18.77;101473.38;5082292;27;45380;-57
2023/09/14 14:05:06;;;;;;;;;7.00;5.50;;;;;45.18;17.83;101477.94;5080397;28;45488;-57
2023/09/14 14:07:32;;;;;;;;;3.33;3.33;;;;;45.00;18.03;101475.66;5082265;27;45454;-57
2023/09/14 14:09:57;;;;;;;;;4.00;4.00;;;;;44.35;18.33;101471.53;5082127;27;45580;-59
2023/09/14 14:12:23;;;;;;;;;3.00;3.00;;;;;43.67;19.01;101468.59;5081808;27;45365;-57
2023/09/14 14:14:48;;;;;;;;;4.00;4.00;;;;;42.69;19.78;101460.63;5081875;27;45373;-58
2023/09/14 14:17:13;;;;;;;;;3.67;3.67;;;;;41.80;20.18;101466.50;5082449;27;45386;-57
2023/09/14 14:19:39;;;;;;;;;4.00;3.25;;;;;41.17;21.38;101457.34;5081431;27;49413;-58
2023/09/14 14:22:04;;;;;;;;;4.75;3.00;;;;;40.60;22.30;101458.47;5082047;27;46692;-59
2023/09/14 14:24:31;;;;;;;;;5.00;5.00;;;;;40.01;21.89;101466.25;5080607;28;48764;-59
2023/09/14 14:26:58;;;;;;;;;5.00;5.00;;;;;39.50;22.86;101450.16;5081714;28;45466;-58
2023/09/14 14:29:23;;;;;;;;;4.25;3.25;;;;;39.12;23.97;101457.06;5081146;27;45468;-58
2023/09/14 14:31:48;;;;;;;;;3.50;3.50;;;;;38.96;23.14;101449.38;5067180;28;46140;-57
2023/09/14 14:34:14;;;;;;;;;4.75;4.75;;;;;39.07;23.40;101454.13;5080300;28;45352;-57
2023/09/14 14:36:43;;;;;;;;;3.00;3.00;;;;;38.87;23.69;101443.22;5081931;27;45361;-57
2023/09/14 14:39:09;;;;;;;;;4.75;4.75;;;;;38.59;23.87;101441.06;5081345;28;45566;-58
2023/09/14 14:41:34;;;;;;;;;2.25;2.25;;;;;38.30;23.70;101441.84;5081651;27;46032;-57
2023/09/14 14:44:00;;;;;;;;;4.50;4.50;;;;;37.82;24.02;101439.00;5080674;28;45207;-57
2023/09/14 14:46:25;;;;;;;;;2.75;2.50;;;;;37.59;25.01;101439.66;5081998;27;45328;-58
2023/09/14 14:48:51;;;;;;;;;6.75;4.00;;;;;37.48;25.32;101432.88;5081247;28;50283;-57
2023/09/14 14:51:17;;;;;;;;;3.75;3.75;;;;;37.32;25.58;101429.81;5081170;27;45326;-58
2023/09/14 14:53:44;;;;;;;;;3.25;3.25;;;;;37.20;26.07;101426.06;5081469;28;45342;-57
2023/09/14 14:56:10;;;;;;;;;5.00;5.00;;;;;36.99;25.54;101428.16;5081877;28;45366;-58
2023/09/14 14:58:37;;;;;;;;;4.50;4.00;;;;;36.86;25.00;101430.19;5080598;27;45494;-56
2023/09/14 15:01:02;;;;;;;;;4.00;4.00;;;;;36.55;25.42;101425.44;5080969;27;45365;-57
2023/09/14 15:03:28;;;;;;;;;5.00;5.00;;;;;36.32;25.95;101426.00;5081161;27;45369;-56
2023/09/14 15:05:54;;;;;;;;;4.50;4.50;;;;;36.24;26.22;101423.47;5081666;28;45404;-55
2023/09/14 15:08:19;;;;;;;;;5.00;3.75;;;;;36.18;26.12;101419.59;5080793;27;45370;-57
2023/09/14 15:10:45;;;;;;;;;4.50;4.50;;;;;36.26;26.47;101415.72;5081166;27;45998;-57
2023/09/14 15:13:10;;;;;;;;;5.75;5.75;;;;;36.80;26.04;101412.38;5080334;28;54934;-58
2023/09/14 15:15:36;;;;;;;;;4.00;4.00;;;;;37.50;25.26;101401.88;5081079;27;45452;-58
2023/09/14 15:18:01;;;;;;;;;4.25;4.25;;;;;38.42;24.69;101395.16;5067403;28;58834;-58
2023/09/14 15:20:26;;;;;;;;;4.75;4.00;;;;;39.32;23.78;101398.63;5080042;28;50171;-57
2023/09/14 15:22:52;;;;;;;;;4.00;4.00;;;;;40.14;22.69;101406.13;5081295;27;45310;-59
2023/09/14 15:25:18;;;;;;;;;3.50;3.50;;;;;40.71;21.28;101401.38;5079820;27;45471;-57
2023/09/14 15:27:44;;;;;;;;;4.00;4.00;;;;;41.25;20.58;101396.97;5081014;27;46261;-57
2023/09/14 15:30:11;;;;;;;;;4.00;4.00;;;;;41.30;21.23;101393.38;5080483;28;46176;-57
2023/09/14 15:32:43;;;;;;;;;4.50;4.50;;;;;41.57;21.00;101385.94;5067480;27;45377;-58
2023/09/14 15:35:08;;;;;;;;;4.75;4.75;;;;;42.33;20.34;101391.69;5079798;27;45481;-58
2023/09/14 15:37:34;;;;;;;;;5.00;5.00;;;;;42.61;20.51;101395.13;5080325;27;45348;-57
2023/09/14 15:40:00;;;;;;;;;3.75;3.25;;;;;42.99;19.91;101393.22;5079625;28;54026;-58
2023/09/14 15:42:25;;;;;;;;;4.75;3.25;;;;;43.26;19.88;101390.34;5080744;27;45393;-58
2023/09/14 15:44:51;;;;;;;;;2.25;2.25;;;;;43.64;20.40;101392.88;5080585;28;45446;-58
2023/09/14 15:47:17;;;;;;;;;4.25;3.25;;;;;43.86;20.05;101391.84;5080656;28;45334;-58
2023/09/14 15:49:42;;;;;;;;;4.25;4.00;;;;;44.06;19.04;101394.81;5080540;27;45376;-57
2023/09/14 15:52:07;;;;;;;;;4.25;4.25;;;;;44.19;18.82;101391.44;5078895;27;64128;-59
2023/09/14 15:54:33;;;;;;;;;5.50;5.50;;;;;44.27;18.54;101396.53;5080732;27;45304;-57
2023/09/14 15:56:59;;;;;;;;;4.50;4.50;;;;;44.33;19.00;101392.63;5079326;27;46097;-57
2023/09/14 15:59:24;;;;;;;;;3.25;3.25;;;;;44.25;18.79;101395.13;5079727;27;46166;-57
2023/09/14 16:01:49;;;;;;;;;2.25;2.25;;;;;44.23;19.08;101395.41;5080197;27;45224;-57
2023/09/14 16:04:15;;;;;;;;;5.25;4.25;;;;;44.09;19.28;101385.75;5080810;27;45282;-57
2023/09/14 16:06:43;;;;;;;;;4.50;4.50;;;;;44.00;18.75;101387.41;5080355;28;49895;-58
2023/09/14 16:09:10;;;;;;;;;4.00;4.00;;;;;43.89;19.45;101380.00;5080246;27;46315;-57
2023/09/14 16:11:36;;;;;;;;;6.75;4.75;;;;;43.58;19.85;101387.47;5080301;27;45402;-58
2023/09/14 16:14:01;;;;;;;;;5.00;3.25;;;;;43.00;19.75;101386.47;5078121;28;45376;-57
2023/09/14 16:16:27;;;;;;;;;5.75;5.00;;;;;42.27;20.69;101388.84;5078428;28;46130;-57
2023/09/14 16:18:52;;;;;;;;;4.00;4.00;;;;;41.76;20.41;101389.31;5078561;28;45385;-57
2023/09/14 16:21:17;;;;;;;;;5.50;3.75;;;;;41.11;21.79;101379.59;5079015;27;45387;-56
2023/09/14 16:23:43;;;;;;;;;6.25;4.75;;;;;40.51;22.12;101384.09;5079808;28;45363;-57
2023/09/14 16:26:08;;;;;;;;;5.00;5.00;;;;;39.96;22.64;101377.13;5078175;28;45948;-57
2023/09/14 16:28:34;;;;;;;;;4.50;4.50;;;;;39.54;22.81;101375.59;5079355;27;47357;-57
2023/09/14 16:30:59;;;;;;;;;6.00;3.00;;;;;39.10;23.36;101369.50;5079478;27;45311;-57
2023/09/14 16:33:24;;;;;;;;;6.00;6.00;;;;;38.81;23.64;101381.63;5072787;28;45331;-57
2023/09/14 16:35:55;;;;;;;;;6.25;6.25;;;;;38.45;24.47;101366.63;5079407;27;45464;-57
2023/09/14 16:38:21;;;;;;;;;4.50;4.50;;;;;38.14;25.01;101375.28;5079254;27;46004;-59